메인 페이지
METAR-TAF:

METAR-TAF

공항 :

누악쇼트, 모리타니

위도: 18-18-36N, 경도: 015-58-11W, 고도: 3m

현재 날씨관측

예보는 28분 전, 03:00시(UTC)에 발표되었습니다.
북동3kt북북동풍과 풍을 오가는
온도 27°C
습도 70%
기압 1014 hPa
시정: 6000m
고도 1000ft 상공 구름 보통
고도 2000ft 상공 구름 조금, 적란운.
뇌우

METAR: GQNO 170300Z 04003KT 020V090 6000 TS SCT010 FEW020CB 27/21 Q1014 TEMPO TSRA

시각: 03:28 (03:28 UTC)

예보

예보는 10 시간 28분 전, 17:00시(UTC)에 발표되었습니다.
예보 대상 시간: 16일 18시부터 17일 24시까지 (UTC)
북서12kt
시정: 7000m
전환 중
16일 20시부터 16일 22시까지 (UTC)
고도 1000ft 상공 구름 많음
확률 30% :
일시적
16일 21시부터 17일 03시까지 (UTC)
고도 3000ft 상공 구름 조금, 적란운.
뇌우, 약한비
전환 중
17일 08시부터 17일 10시까지 (UTC)
고도 1000ft 상공 구름 조금

TAF: GQNO 161700Z 1618/1724 32012KT 7000 NSC BECMG 1620/1622 BKN010 PROB30 TEMPO 1621/1703 -TSRA FEW030CB BECMG 1708/1710 FEW010

4,000개 이상의 공항 관측 자료 및 예보 (METAR 및 TAF 보고).

지도상에서 검색 가능한 기상관측소가 노란 점과 빨간 점으로 표시되어 있습니다.

기상관측소 명을 보려면 표시 위로 마우스를 이동하세요.

날씨 관측과 예보를 보려면 클릭하세요.

지도 변경 : 확대하려면 엑스 표시가 있는 녹색 버튼, 축소하려면 빼기 표시가 있는 녹색 버튼, 다음 페이지의 지도를 보려면 녹색 화살표를 클릭하세요.


METAR-TAF: